sensor_id;sensor_type;location;lat;lon;timestamp;pressure;altitude;pressure_sealevel;temperature;humidity
59829;BME280;45708;51.848;107.620;2023-11-22T00:01:12;96530.16;;;-16.90;61.82
59829;BME280;45708;51.848;107.620;2023-11-22T00:06:13;96526.63;;;-16.78;62.06
59829;BME280;45708;51.848;107.620;2023-11-22T00:11:13;96457.41;;;-17.33;61.77
59829;BME280;45708;51.848;107.620;2023-11-22T00:16:14;96542.00;;;-16.94;62.36
59829;BME280;45708;51.848;107.620;2023-11-22T00:21:15;96569.69;;;-16.86;62.20
59829;BME280;45708;51.848;107.620;2023-11-22T00:26:16;96559.53;;;-16.81;61.90
59829;BME280;45708;51.848;107.620;2023-11-22T00:31:17;96561.09;;;-16.73;62.47
59829;BME280;45708;51.848;107.620;2023-11-22T00:36:18;96522.13;;;-16.59;61.62
59829;BME280;45708;51.848;107.620;2023-11-22T00:41:18;96526.50;;;-16.14;62.20
59829;BME280;45708;51.848;107.620;2023-11-22T00:46:19;96523.09;;;-15.62;61.38
59829;BME280;45708;51.848;107.620;2023-11-22T00:51:20;96523.09;;;-15.60;62.00
59829;BME280;45708;51.848;107.620;2023-11-22T00:56:21;96523.59;;;-15.43;61.31
59829;BME280;45708;51.848;107.620;2023-11-22T01:01:22;96503.09;;;-15.31;61.46
59829;BME280;45708;51.848;107.620;2023-11-22T01:06:23;96483.31;;;-15.57;61.10
59829;BME280;45708;51.848;107.620;2023-11-22T01:11:23;96481.53;;;-15.52;61.63
59829;BME280;45708;51.848;107.620;2023-11-22T01:16:24;96464.41;;;-15.39;61.56
59829;BME280;45708;51.848;107.620;2023-11-22T01:21:25;96402.41;;;-15.63;61.75
59829;BME280;45708;51.848;107.620;2023-11-22T01:26:26;96467.44;;;-15.20;62.70
59829;BME280;45708;51.848;107.620;2023-11-22T01:31:27;96458.63;;;-15.04;62.39
59829;BME280;45708;51.848;107.620;2023-11-22T01:36:28;96477.16;;;-15.02;62.12
59829;BME280;45708;51.848;107.620;2023-11-22T01:41:29;96498.22;;;-14.97;62.66
59829;BME280;45708;51.848;107.620;2023-11-22T01:46:30;96525.97;;;-14.91;61.10
59829;BME280;45708;51.848;107.620;2023-11-22T01:51:31;96531.81;;;-14.47;62.38
59829;BME280;45708;51.848;107.620;2023-11-22T01:56:35;96512.75;;;-14.28;61.62
59829;BME280;45708;51.848;107.620;2023-11-22T02:01:36;96528.78;;;-13.90;60.74
59829;BME280;45708;51.848;107.620;2023-11-22T02:06:37;96527.41;;;-13.68;60.93
59829;BME280;45708;51.848;107.620;2023-11-22T02:11:38;96561.56;;;-13.13;60.49
59829;BME280;45708;51.848;107.620;2023-11-22T02:16:39;96547.38;;;-12.91;60.12
59829;BME280;45708;51.848;107.620;2023-11-22T02:21:41;96539.34;;;-12.75;59.96
59829;BME280;45708;51.848;107.620;2023-11-22T02:26:45;96550.56;;;-12.84;60.21
59829;BME280;45708;51.848;107.620;2023-11-22T02:31:46;96539.38;;;-12.77;59.95
59829;BME280;45708;51.848;107.620;2023-11-22T02:36:46;96560.84;;;-12.56;59.53
59829;BME280;45708;51.848;107.620;2023-11-22T02:41:47;96547.75;;;-12.44;59.35
59829;BME280;45708;51.848;107.620;2023-11-22T02:46:48;96533.25;;;-12.42;58.72
59829;BME280;45708;51.848;107.620;2023-11-22T02:51:49;96531.28;;;-12.62;58.58
59829;BME280;45708;51.848;107.620;2023-11-22T02:56:50;96556.69;;;-12.90;58.50
59829;BME280;45708;51.848;107.620;2023-11-22T03:01:51;96549.59;;;-13.40;58.39
59829;BME280;45708;51.848;107.620;2023-11-22T03:06:52;96562.97;;;-13.03;58.79
59829;BME280;45708;51.848;107.620;2023-11-22T03:11:53;96556.50;;;-12.83;58.49
59829;BME280;45708;51.848;107.620;2023-11-22T03:16:54;96568.00;;;-13.00;58.17
59829;BME280;45708;51.848;107.620;2023-11-22T03:21:54;96554.63;;;-13.08;58.78
59829;BME280;45708;51.848;107.620;2023-11-22T03:26:55;96562.34;;;-13.11;57.87
59829;BME280;45708;51.848;107.620;2023-11-22T03:31:56;96562.16;;;-13.05;58.25
59829;BME280;45708;51.848;107.620;2023-11-22T03:36:57;96569.41;;;-12.90;57.75
59829;BME280;45708;51.848;107.620;2023-11-22T03:41:58;96564.28;;;-13.19;57.54
59829;BME280;45708;51.848;107.620;2023-11-22T03:46:59;96563.34;;;-13.16;57.58
59829;BME280;45708;51.848;107.620;2023-11-22T03:52:00;96569.19;;;-13.13;57.37
59829;BME280;45708;51.848;107.620;2023-11-22T03:57:02;96557.94;;;-12.73;57.90
59829;BME280;45708;51.848;107.620;2023-11-22T04:02:03;96556.97;;;-12.40;57.14
59829;BME280;45708;51.848;107.620;2023-11-22T04:07:04;96556.69;;;-12.31;56.94
59829;BME280;45708;51.848;107.620;2023-11-22T04:12:05;96552.81;;;-12.14;56.81
59829;BME280;45708;51.848;107.620;2023-11-22T04:17:06;96550.38;;;-12.17;56.71
59829;BME280;45708;51.848;107.620;2023-11-22T04:22:06;96548.00;;;-12.23;56.44
59829;BME280;45708;51.848;107.620;2023-11-22T04:27:07;96547.47;;;-12.64;56.96
59829;BME280;45708;51.848;107.620;2023-11-22T04:32:08;96547.47;;;-12.64;56.62
59829;BME280;45708;51.848;107.620;2023-11-22T04:37:10;96519.06;;;-12.78;56.60
59829;BME280;45708;51.848;107.620;2023-11-22T04:42:11;96535.06;;;-12.75;56.41
59829;BME280;45708;51.848;107.620;2023-11-22T04:47:12;96545.25;;;-13.06;56.16
59829;BME280;45708;51.848;107.620;2023-11-22T04:52:12;96555.88;;;-12.92;56.39
59829;BME280;45708;51.848;107.620;2023-11-22T04:57:13;96549.44;;;-13.05;56.30
59829;BME280;45708;51.848;107.620;2023-11-22T05:02:14;96544.00;;;-12.91;56.39
59829;BME280;45708;51.848;107.620;2023-11-22T05:07:15;96548.25;;;-13.21;55.71
59829;BME280;45708;51.848;107.620;2023-11-22T05:12:16;96541.69;;;-13.64;56.58
59829;BME280;45708;51.848;107.620;2023-11-22T05:17:17;96538.44;;;-13.69;55.76
59829;BME280;45708;51.848;107.620;2023-11-22T05:22:18;96528.22;;;-13.33;56.18
59829;BME280;45708;51.848;107.620;2023-11-22T05:27:19;96530.59;;;-13.27;56.28
59829;BME280;45708;51.848;107.620;2023-11-22T05:32:20;96548.50;;;-13.32;55.90
59829;BME280;45708;51.848;107.620;2023-11-22T05:37:21;96554.44;;;-13.31;55.70
59829;BME280;45708;51.848;107.620;2023-11-22T05:42:21;96557.59;;;-13.23;56.16
59829;BME280;45708;51.848;107.620;2023-11-22T05:47:22;96513.13;;;-13.39;55.87
59829;BME280;45708;51.848;107.620;2023-11-22T05:52:23;96537.34;;;-13.26;55.49
59829;BME280;45708;51.848;107.620;2023-11-22T05:57:24;96526.97;;;-13.51;56.04
59829;BME280;45708;51.848;107.620;2023-11-22T06:02:25;96515.47;;;-13.66;56.27
59829;BME280;45708;51.848;107.620;2023-11-22T06:07:26;96527.22;;;-13.62;55.48
59829;BME280;45708;51.848;107.620;2023-11-22T06:12:27;96521.22;;;-13.58;55.30
59829;BME280;45708;51.848;107.620;2023-11-22T06:17:27;96539.63;;;-13.49;56.04
59829;BME280;45708;51.848;107.620;2023-11-22T06:22:28;96532.22;;;-13.57;56.29
59829;BME280;45708;51.848;107.620;2023-11-22T06:27:29;96533.50;;;-13.75;56.04
59829;BME280;45708;51.848;107.620;2023-11-22T06:32:30;96531.03;;;-13.78;55.88
59829;BME280;45708;51.848;107.620;2023-11-22T06:37:31;96529.03;;;-13.99;55.76
59829;BME280;45708;51.848;107.620;2023-11-22T06:42:32;96524.47;;;-14.24;56.12
59829;BME280;45708;51.848;107.620;2023-11-22T06:47:33;96539.53;;;-14.15;56.17
59829;BME280;45708;51.848;107.620;2023-11-22T06:52:34;96538.69;;;-14.15;56.23
59829;BME280;45708;51.848;107.620;2023-11-22T06:57:37;96555.34;;;-14.42;56.55
59829;BME280;45708;51.848;107.620;2023-11-22T07:02:38;96570.75;;;-14.48;55.77
59829;BME280;45708;51.848;107.620;2023-11-22T07:07:39;96579.00;;;-14.40;55.86
59829;BME280;45708;51.848;107.620;2023-11-22T07:12:40;96576.44;;;-14.38;55.30
59829;BME280;45708;51.848;107.620;2023-11-22T07:17:41;96570.56;;;-14.42;56.86
59829;BME280;45708;51.848;107.620;2023-11-22T07:22:42;96568.09;;;-14.43;56.87
59829;BME280;45708;51.848;107.620;2023-11-22T07:27:45;96563.84;;;-14.43;55.18
59829;BME280;45708;51.848;107.620;2023-11-22T07:32:46;96567.41;;;-14.50;55.95
59829;BME280;45708;51.848;107.620;2023-11-22T07:37:48;96552.63;;;-14.71;55.65
59829;BME280;45708;51.848;107.620;2023-11-22T07:42:49;96556.78;;;-14.69;55.00
59829;BME280;45708;51.848;107.620;2023-11-22T07:47:50;96565.38;;;-14.74;54.98
59829;BME280;45708;51.848;107.620;2023-11-22T07:52:51;96546.97;;;-14.84;55.47
59829;BME280;45708;51.848;107.620;2023-11-22T07:57:52;96569.50;;;-14.70;55.41
59829;BME280;45708;51.848;107.620;2023-11-22T08:02:52;96562.81;;;-14.73;56.05
59829;BME280;45708;51.848;107.620;2023-11-22T08:07:53;96556.03;;;-14.72;55.44
59829;BME280;45708;51.848;107.620;2023-11-22T08:12:54;96557.75;;;-14.74;55.58
59829;BME280;45708;51.848;107.620;2023-11-22T08:17:55;96568.94;;;-14.85;55.68
59829;BME280;45708;51.848;107.620;2023-11-22T08:22:56;96559.16;;;-15.03;55.57
59829;BME280;45708;51.848;107.620;2023-11-22T08:27:57;96569.41;;;-15.09;55.91
59829;BME280;45708;51.848;107.620;2023-11-22T08:32:58;96578.16;;;-15.25;55.51
59829;BME280;45708;51.848;107.620;2023-11-22T08:37:59;96570.09;;;-15.47;56.13
59829;BME280;45708;51.848;107.620;2023-11-22T08:42:59;96572.78;;;-15.55;56.36
59829;BME280;45708;51.848;107.620;2023-11-22T08:48:00;96569.53;;;-15.60;56.28
59829;BME280;45708;51.848;107.620;2023-11-22T08:53:01;96563.03;;;-15.76;56.68
59829;BME280;45708;51.848;107.620;2023-11-22T08:58:02;96568.09;;;-15.76;56.92
59829;BME280;45708;51.848;107.620;2023-11-22T09:03:02;96567.34;;;-15.81;56.77
59829;BME280;45708;51.848;107.620;2023-11-22T09:08:03;96585.88;;;-15.79;57.10
59829;BME280;45708;51.848;107.620;2023-11-22T09:13:04;96566.72;;;-15.95;57.10
59829;BME280;45708;51.848;107.620;2023-11-22T09:18:05;96579.97;;;-15.78;56.64
59829;BME280;45708;51.848;107.620;2023-11-22T09:23:06;96566.38;;;-15.74;57.27
59829;BME280;45708;51.848;107.620;2023-11-22T09:28:07;96567.88;;;-15.64;57.69
59829;BME280;45708;51.848;107.620;2023-11-22T09:33:10;96577.91;;;-15.58;57.22
59829;BME280;45708;51.848;107.620;2023-11-22T09:38:11;96576.19;;;-15.56;57.26
59829;BME280;45708;51.848;107.620;2023-11-22T09:43:14;96569.31;;;-15.51;57.70
59829;BME280;45708;51.848;107.620;2023-11-22T09:48:20;96575.94;;;-15.44;56.92
59829;BME280;45708;51.848;107.620;2023-11-22T09:53:33;96579.28;;;-15.42;57.79
59829;BME280;45708;51.848;107.620;2023-11-22T09:58:35;96572.56;;;-15.43;57.20
59829;BME280;45708;51.848;107.620;2023-11-22T10:03:37;96571.69;;;-15.42;58.66
59829;BME280;45708;51.848;107.620;2023-11-22T10:08:38;96550.69;;;-15.48;57.88
59829;BME280;45708;51.848;107.620;2023-11-22T10:13:40;96548.88;;;-15.42;58.84
59829;BME280;45708;51.848;107.620;2023-11-22T10:18:45;96552.28;;;-15.43;59.03
59829;BME280;45708;51.848;107.620;2023-11-22T10:23:48;96538.75;;;-15.42;58.44
59829;BME280;45708;51.848;107.620;2023-11-22T10:28:53;96478.69;;;-15.78;58.70
59829;BME280;45708;51.848;107.620;2023-11-22T10:33:54;96537.84;;;-15.36;59.03
59829;BME280;45708;51.848;107.620;2023-11-22T10:38:55;96543.53;;;-15.26;58.74
59829;BME280;45708;51.848;107.620;2023-11-22T10:43:57;96543.53;;;-15.26;59.43
59829;BME280;45708;51.848;107.620;2023-11-22T10:48:59;96550.28;;;-15.25;59.47
59829;BME280;45708;51.848;107.620;2023-11-22T10:54:01;96556.16;;;-15.23;59.52
59829;BME280;45708;51.848;107.620;2023-11-22T10:59:15;96551.16;;;-15.26;59.67
59829;BME280;45708;51.848;107.620;2023-11-22T11:04:39;96548.78;;;-15.35;59.87
59829;BME280;45708;51.848;107.620;2023-11-22T11:09:44;96573.16;;;-15.28;60.26
59829;BME280;45708;51.848;107.620;2023-11-22T11:14:47;96559.69;;;-15.30;59.79
59829;BME280;45708;51.848;107.620;2023-11-22T11:19:48;96565.50;;;-15.25;59.42
59829;BME280;45708;51.848;107.620;2023-11-22T11:25:00;96568.81;;;-15.23;59.73
59829;BME280;45708;51.848;107.620;2023-11-22T11:30:29;96570.50;;;-15.22;59.55
59829;BME280;45708;51.848;107.620;2023-11-22T11:40:47;96571.31;;;-15.19;59.91
59829;BME280;45708;51.848;107.620;2023-11-22T11:45:48;96572.00;;;-15.12;60.29
59829;BME280;45708;51.848;107.620;2023-11-22T11:50:48;96556.69;;;-15.06;59.68
59829;BME280;45708;51.848;107.620;2023-11-22T11:55:54;96549.88;;;-15.04;59.54
59829;BME280;45708;51.848;107.620;2023-11-22T12:00:55;96530.59;;;-15.11;60.63
59829;BME280;45708;51.848;107.620;2023-11-22T12:05:56;96532.22;;;-15.09;59.93
59829;BME280;45708;51.848;107.620;2023-11-22T12:10:57;96534.94;;;-15.16;60.23
59829;BME280;45708;51.848;107.620;2023-11-22T12:15:58;96531.75;;;-15.27;60.35
59829;BME280;45708;51.848;107.620;2023-11-22T12:20:59;96545.13;;;-15.19;59.71
59829;BME280;45708;51.848;107.620;2023-11-22T12:26:01;96495.00;;;-15.50;60.32
59829;BME280;45708;51.848;107.620;2023-11-22T12:31:13;96520.84;;;-15.31;60.19
59829;BME280;45708;51.848;107.620;2023-11-22T12:36:14;96533.31;;;-15.20;61.19
59829;BME280;45708;51.848;107.620;2023-11-22T12:41:16;96535.91;;;-15.25;60.54
59829;BME280;45708;51.848;107.620;2023-11-22T12:46:16;96529.16;;;-15.24;60.07
59829;BME280;45708;51.848;107.620;2023-11-22T12:51:17;96536.84;;;-15.29;60.42
59829;BME280;45708;51.848;107.620;2023-11-22T12:56:18;96521.84;;;-15.40;60.41
59829;BME280;45708;51.848;107.620;2023-11-22T13:01:19;96481.72;;;-15.59;61.28
59829;BME280;45708;51.848;107.620;2023-11-22T13:06:20;96520.84;;;-15.31;59.90
59829;BME280;45708;51.848;107.620;2023-11-22T13:11:21;96526.66;;;-15.26;61.12
59829;BME280;45708;51.848;107.620;2023-11-22T13:16:22;96518.28;;;-15.29;60.89
59829;BME280;45708;51.848;107.620;2023-11-22T13:21:22;96511.53;;;-15.30;59.89
59829;BME280;45708;51.848;107.620;2023-11-22T13:26:23;96502.47;;;-15.44;60.42
59829;BME280;45708;51.848;107.620;2023-11-22T13:31:24;96492.72;;;-15.60;61.01
59829;BME280;45708;51.848;107.620;2023-11-22T13:36:25;96504.34;;;-15.52;61.27
59829;BME280;45708;51.848;107.620;2023-11-22T13:41:26;96499.28;;;-15.52;60.64
59829;BME280;45708;51.848;107.620;2023-11-22T13:46:27;96505.06;;;-15.47;60.14
59829;BME280;45708;51.848;107.620;2023-11-22T13:51:27;96498.47;;;-15.54;60.99
59829;BME280;45708;51.848;107.620;2023-11-22T13:56:28;96494.31;;;-15.58;61.10
59829;BME280;45708;51.848;107.620;2023-11-22T14:01:29;96495.31;;;-15.65;60.23
59829;BME280;45708;51.848;107.620;2023-11-22T14:06:30;96493.88;;;-15.78;61.27
59829;BME280;45708;51.848;107.620;2023-11-22T14:11:31;96492.41;;;-15.91;60.35
59829;BME280;45708;51.848;107.620;2023-11-22T14:16:31;96475.78;;;-16.08;60.95
59829;BME280;45708;51.848;107.620;2023-11-22T14:21:32;96484.31;;;-16.12;61.19
59829;BME280;45708;51.848;107.620;2023-11-22T14:26:33;96491.19;;;-16.20;61.65
59829;BME280;45708;51.848;107.620;2023-11-22T14:31:34;96403.47;;;-16.69;61.23
59829;BME280;45708;51.848;107.620;2023-11-22T14:36:35;96489.31;;;-16.09;60.83
59829;BME280;45708;51.848;107.620;2023-11-22T14:41:36;96474.13;;;-16.09;61.07
59829;BME280;45708;51.848;107.620;2023-11-22T14:46:36;96479.09;;;-16.04;61.76
59829;BME280;45708;51.848;107.620;2023-11-22T14:51:37;96484.97;;;-16.01;61.28
59829;BME280;45708;51.848;107.620;2023-11-22T14:56:38;96485.03;;;-16.05;61.93
59829;BME280;45708;51.848;107.620;2023-11-22T15:01:39;96477.34;;;-15.97;61.71
59829;BME280;45708;51.848;107.620;2023-11-22T15:06:40;96455.44;;;-16.02;61.46
59829;BME280;45708;51.848;107.620;2023-11-22T15:11:41;96453.09;;;-16.12;62.00
59829;BME280;45708;51.848;107.620;2023-11-22T15:16:42;96472.56;;;-16.16;61.25
59829;BME280;45708;51.848;107.620;2023-11-22T15:21:43;96439.28;;;-16.44;61.76
59829;BME280;45708;51.848;107.620;2023-11-22T15:26:44;96448.53;;;-16.43;61.97
59829;BME280;45708;51.848;107.620;2023-11-22T15:31:45;96445.41;;;-16.57;61.95
59829;BME280;45708;51.848;107.620;2023-11-22T15:36:46;96412.88;;;-16.77;61.91
59829;BME280;45708;51.848;107.620;2023-11-22T15:41:47;96444.47;;;-16.51;62.08
59829;BME280;45708;51.848;107.620;2023-11-22T15:46:48;96423.56;;;-16.64;62.20
59829;BME280;45708;51.848;107.620;2023-11-22T15:51:49;96434.66;;;-16.70;61.82
59829;BME280;45708;51.848;107.620;2023-11-22T15:56:50;96426.38;;;-16.78;62.24
59829;BME280;45708;51.848;107.620;2023-11-22T16:01:50;96418.16;;;-16.92;61.86
59829;BME280;45708;51.848;107.620;2023-11-22T16:06:51;96418.25;;;-16.98;62.20
59829;BME280;45708;51.848;107.620;2023-11-22T16:11:53;96419.31;;;-17.14;62.11
59829;BME280;45708;51.848;107.620;2023-11-22T16:16:53;96412.84;;;-17.35;62.09
59829;BME280;45708;51.848;107.620;2023-11-22T16:21:54;96437.28;;;-17.37;62.49
59829;BME280;45708;51.848;107.620;2023-11-22T16:26:55;96415.66;;;-17.58;62.33
59829;BME280;45708;51.848;107.620;2023-11-22T16:31:56;96414.00;;;-17.59;62.67
59829;BME280;45708;51.848;107.620;2023-11-22T16:36:57;96435.81;;;-17.55;62.69
59829;BME280;45708;51.848;107.620;2023-11-22T16:41:58;96421.56;;;-17.59;62.89
59829;BME280;45708;51.848;107.620;2023-11-22T16:46:59;96398.22;;;-17.76;62.27
59829;BME280;45708;51.848;107.620;2023-11-22T16:52:01;96415.72;;;-17.64;63.18
59829;BME280;45708;51.848;107.620;2023-11-22T16:57:02;96412.31;;;-17.60;62.82
59829;BME280;45708;51.848;107.620;2023-11-22T17:02:03;96404.78;;;-17.66;62.51
59829;BME280;45708;51.848;107.620;2023-11-22T17:07:03;96403.94;;;-17.65;62.84
59829;BME280;45708;51.848;107.620;2023-11-22T17:12:04;96394.75;;;-17.68;62.82
59829;BME280;45708;51.848;107.620;2023-11-22T17:17:05;96408.25;;;-17.70;63.40
59829;BME280;45708;51.848;107.620;2023-11-22T17:22:07;96405.84;;;-17.79;62.87
59829;BME280;45708;51.848;107.620;2023-11-22T17:27:08;96399.25;;;-17.93;63.44
59829;BME280;45708;51.848;107.620;2023-11-22T17:32:09;96394.91;;;-17.80;63.37
59829;BME280;45708;51.848;107.620;2023-11-22T17:37:09;96388.19;;;-17.82;63.12
59829;BME280;45708;51.848;107.620;2023-11-22T17:42:10;96380.56;;;-17.76;63.07
59829;BME280;45708;51.848;107.620;2023-11-22T17:47:11;96388.78;;;-17.65;62.87
59829;BME280;45708;51.848;107.620;2023-11-22T17:52:12;96357.03;;;-17.78;63.66
59829;BME280;45708;51.848;107.620;2023-11-22T17:57:13;96383.72;;;-17.62;63.46
59829;BME280;45708;51.848;107.620;2023-11-22T18:02:14;96385.50;;;-17.67;62.90
59829;BME280;45708;51.848;107.620;2023-11-22T18:07:15;96383.03;;;-17.72;63.78
59829;BME280;45708;51.848;107.620;2023-11-22T18:12:16;96383.91;;;-17.74;63.25
59829;BME280;45708;51.848;107.620;2023-11-22T18:17:16;96378.00;;;-17.73;64.02
59829;BME280;45708;51.848;107.620;2023-11-22T18:22:17;96370.59;;;-17.89;63.68
59829;BME280;45708;51.848;107.620;2023-11-22T18:27:18;96365.69;;;-17.98;63.55
59829;BME280;45708;51.848;107.620;2023-11-22T18:32:19;96384.00;;;-17.83;64.01
59829;BME280;45708;51.848;107.620;2023-11-22T18:37:20;96383.94;;;-17.76;63.48
59829;BME280;45708;51.848;107.620;2023-11-22T18:42:21;96361.25;;;-17.77;64.25
59829;BME280;45708;51.848;107.620;2023-11-22T18:47:22;96362.69;;;-17.64;64.15
59829;BME280;45708;51.848;107.620;2023-11-22T18:52:23;96356.78;;;-17.60;64.13
59829;BME280;45708;51.848;107.620;2023-11-22T18:57:24;96361.00;;;-17.61;63.78
59829;BME280;45708;51.848;107.620;2023-11-22T19:02:25;96353.53;;;-17.68;63.94
59829;BME280;45708;51.848;107.620;2023-11-22T19:07:26;96356.22;;;-17.80;64.54
59829;BME280;45708;51.848;107.620;2023-11-22T19:12:28;96331.94;;;-17.91;64.51
59829;BME280;45708;51.848;107.620;2023-11-22T19:17:29;96329.25;;;-17.77;64.53
59829;BME280;45708;51.848;107.620;2023-11-22T19:22:32;96338.31;;;-17.65;64.26
59829;BME280;45708;51.848;107.620;2023-11-22T19:27:33;96334.69;;;-17.46;64.92
59829;BME280;45708;51.848;107.620;2023-11-22T19:32:34;96334.47;;;-17.29;64.92
59829;BME280;45708;51.848;107.620;2023-11-22T19:37:35;96316.66;;;-17.20;64.63
59829;BME280;45708;51.848;107.620;2023-11-22T19:42:36;96315.72;;;-17.14;64.55
59829;BME280;45708;51.848;107.620;2023-11-22T19:47:36;96322.28;;;-17.04;64.79
59829;BME280;45708;51.848;107.620;2023-11-22T19:52:37;96302.34;;;-17.19;64.80
59829;BME280;45708;51.848;107.620;2023-11-22T19:57:38;96313.19;;;-17.13;64.73
59829;BME280;45708;51.848;107.620;2023-11-22T20:02:39;96319.06;;;-17.12;65.06
59829;BME280;45708;51.848;107.620;2023-11-22T20:07:40;96313.31;;;-17.24;65.16
59829;BME280;45708;51.848;107.620;2023-11-22T20:12:41;96312.56;;;-17.29;64.60
59829;BME280;45708;51.848;107.620;2023-11-22T20:17:42;96308.41;;;-17.31;65.16
59829;BME280;45708;51.848;107.620;2023-11-22T20:22:43;96284.91;;;-17.36;65.06
59829;BME280;45708;51.848;107.620;2023-11-22T20:27:43;96280.78;;;-17.40;64.88
59829;BME280;45708;51.848;107.620;2023-11-22T20:32:44;96290.81;;;-17.37;64.72
59829;BME280;45708;51.848;107.620;2023-11-22T20:37:45;96284.31;;;-17.52;65.46
59829;BME280;45708;51.848;107.620;2023-11-22T20:42:46;96282.03;;;-17.69;65.37
59829;BME280;45708;51.848;107.620;2023-11-22T20:47:47;96291.56;;;-17.89;65.54
59829;BME280;45708;51.848;107.620;2023-11-22T20:52:47;96286.72;;;-18.06;65.17
59829;BME280;45708;51.848;107.620;2023-11-22T20:57:48;96242.53;;;-18.34;64.92
59829;BME280;45708;51.848;107.620;2023-11-22T21:02:49;96289.47;;;-18.24;65.06
59829;BME280;45708;51.848;107.620;2023-11-22T21:07:50;96286.97;;;-18.27;65.31
59829;BME280;45708;51.848;107.620;2023-11-22T21:12:51;96286.75;;;-18.09;64.93
59829;BME280;45708;51.848;107.620;2023-11-22T21:17:52;96283.38;;;-18.08;66.06
59829;BME280;45708;51.848;107.620;2023-11-22T21:22:52;96270.94;;;-18.19;65.36
59829;BME280;45708;51.848;107.620;2023-11-22T21:27:53;96261.72;;;-18.24;65.62
59829;BME280;45708;51.848;107.620;2023-11-22T21:32:54;96278.44;;;-18.14;65.27
59829;BME280;45708;51.848;107.620;2023-11-22T21:37:54;96249.94;;;-18.22;65.34
59829;BME280;45708;51.848;107.620;2023-11-22T21:42:55;96257.94;;;-17.90;65.78
59829;BME280;45708;51.848;107.620;2023-11-22T21:47:56;96272.97;;;-17.83;65.68
59829;BME280;45708;51.848;107.620;2023-11-22T21:52:57;96262.88;;;-17.80;65.40
59829;BME280;45708;51.848;107.620;2023-11-22T21:57:58;96257.84;;;-17.83;66.10
59829;BME280;45708;51.848;107.620;2023-11-22T22:03:01;96244.50;;;-17.92;65.94
59829;BME280;45708;51.848;107.620;2023-11-22T22:08:02;96183.81;;;-18.41;65.54
59829;BME280;45708;51.848;107.620;2023-11-22T22:13:03;96224.78;;;-18.27;66.04
59829;BME280;45708;51.848;107.620;2023-11-22T22:18:03;96238.22;;;-18.26;65.99
59829;BME280;45708;51.848;107.620;2023-11-22T22:23:04;96238.47;;;-18.48;65.37
59829;BME280;45708;51.848;107.620;2023-11-22T22:28:05;96253.72;;;-18.57;66.05
59829;BME280;45708;51.848;107.620;2023-11-22T22:33:06;96255.75;;;-18.89;66.15
59829;BME280;45708;51.848;107.620;2023-11-22T22:38:07;96236.53;;;-18.98;66.00
59829;BME280;45708;51.848;107.620;2023-11-22T22:43:07;96243.94;;;-18.84;66.23
59829;BME280;45708;51.848;107.620;2023-11-22T22:48:08;96217.22;;;-18.97;65.84
59829;BME280;45708;51.848;107.620;2023-11-22T22:53:09;96245.78;;;-18.98;66.08
59829;BME280;45708;51.848;107.620;2023-11-22T22:58:10;96225.81;;;-19.17;65.88
59829;BME280;45708;51.848;107.620;2023-11-22T23:03:11;96252.44;;;-18.94;66.38
59829;BME280;45708;51.848;107.620;2023-11-22T23:08:12;96258.25;;;-18.88;66.40
59829;BME280;45708;51.848;107.620;2023-11-22T23:13:12;96190.50;;;-19.11;66.13
59829;BME280;45708;51.848;107.620;2023-11-22T23:18:13;96252.06;;;-18.58;66.09
59829;BME280;45708;51.848;107.620;2023-11-22T23:23:14;96262.75;;;-18.37;66.67
59829;BME280;45708;51.848;107.620;2023-11-22T23:28:15;96220.03;;;-18.50;66.08
59829;BME280;45708;51.848;107.620;2023-11-22T23:33:16;96252.66;;;-18.37;65.57
59829;BME280;45708;51.848;107.620;2023-11-22T23:38:18;96260.25;;;-18.43;65.93
59829;BME280;45708;51.848;107.620;2023-11-22T23:43:18;96261.94;;;-18.42;66.79
59829;BME280;45708;51.848;107.620;2023-11-22T23:48:22;96252.69;;;-18.40;66.58
59829;BME280;45708;51.848;107.620;2023-11-22T23:53:23;96241.91;;;-18.53;66.72
59829;BME280;45708;51.848;107.620;2023-11-22T23:58:23;96258.72;;;-18.54;66.77
